MSC Barbara — HODU — position and weather

sailwx.info

Track history (hours):
 
Tides and Currents Weather Stations Pressure Air Temp Water Temp Dewpoint Dewpoint Depression Visibility Wind Speed Wind Dir Waves Ship Positions

MSC Barbara

Last reported at 2017-Jul-23 03:21 UTC. Time now 2017-Jul-23 04:30 UTC.
Position N 40°24' W 071°39'.

Length 304 m; draft 10.2 m.

Type: Ship. MMSI: 353775000.

Date/timePositionNaut miles runAvg speedWind from/ knotsBaromVisibWave heightAir tempDewpointWater temp
2017-Jul-23 03:21N 40°24' W 071°39'7818.6
2017-Jul-22 23:09N 40°23' W 073°21'418.2
2017-Jul-22 22:55N 40°23' W 073°27'818.3
2017-Jul-22 22:29N 40°25' W 073°37'816.8
2017-Jul-22 22:00N 40°27' W 073°47'612.9
2017-Jul-22 21:30N 40°29' W 073°55'713.7
2017-Jul-22 21:01N 40°34' W 074°02'611.2
2017-Jul-22 20:30N 40°39' W 074°05'3 6.3
2017-Jul-22 20:00N 40°39' W 074°09'2 3.6
2017-Jul-22 19:30N 40°40' W 074°08'1 2.0
2017-Jul-22 19:00N 40°41' W 074°09'0 0.0
2017-Jul-22 18:30N 40°41' W 074°09'0 0.0
2017-Jul-22 18:00N 40°41' W 074°09'0 0.0
2017-Jul-22 17:27N 40°41' W 074°09'0 0.0
2017-Jul-22 16:59N 40°41' W 074°09'0 0.0
2017-Jul-22 16:29N 40°41' W 074°09'0 0.0
2017-Jul-22 15:56N 40°41' W 074°09'0 0.0
2017-Jul-22 15:29N 40°41' W 074°09'0 0.0
2017-Jul-22 14:58N 40°41' W 074°09'0 0.0
2017-Jul-22 13:58N 40°41' W 074°09'0 0.0
2017-Jul-22 13:28N 40°41' W 074°09'0 0.0
2017-Jul-22 12:58N 40°41' W 074°09'0 0.0
2017-Jul-22 12:30N 40°41' W 074°09'0 0.0
2017-Jul-22 12:00N 40°41' W 074°09'0 0.0
2017-Jul-22 11:30N 40°41' W 074°09'0 0.0
2017-Jul-22 10:57N 40°41' W 074°09'0 0.0
2017-Jul-22 10:30N 40°41' W 074°09'0 0.0
2017-Jul-22 09:59N 40°41' W 074°09'0 0.0
2017-Jul-22 09:29N 40°41' W 074°09'0 0.0
2017-Jul-22 08:59N 40°41' W 074°09'0 0.0
2017-Jul-22 08:26N 40°41' W 074°09'0 0.0
2017-Jul-22 07:58N 40°41' W 074°09'0 0.0
2017-Jul-22 07:28N 40°41' W 074°09'0 0.0
2017-Jul-22 06:58N 40°41' W 074°09'0 0.0
2017-Jul-22 06:28N 40°41' W 074°09'0 0.0
2017-Jul-22 05:58N 40°41' W 074°09'0 0.0
2017-Jul-22 05:30N 40°41' W 074°09'0 0.0
2017-Jul-22 05:00N 40°41' W 074°09'0 0.0
2017-Jul-22 04:30N 40°41' W 074°09'0 0.0
2017-Jul-22 03:48N 40°41' W 074°09'0 0.0
2017-Jul-22 03:29N 40°41' W 074°09'0 0.0
2017-Jul-22 02:59N 40°41' W 074°09'0 0.0
2017-Jul-22 02:29N 40°41' W 074°09'0 0.0
2017-Jul-22 01:59N 40°41' W 074°09'0 0.0
2017-Jul-22 01:26N 40°41' W 074°09'0 0.0
2017-Jul-22 00:58N 40°41' W 074°09'0 0.0
2017-Jul-22 00:28N 40°41' W 074°09'0 0.0
2017-Jul-21 23:58N 40°41' W 074°09'0 0.0
2017-Jul-21 23:28N 40°41' W 074°09'0 0.0
2017-Jul-21 22:58N 40°41' W 074°09'0 0.0
2017-Jul-21 22:24N 40°41' W 074°09'0 0.0
2017-Jul-21 22:00N 40°41' W 074°09'0 0.0
2017-Jul-21 21:30N 40°41' W 074°09'0 0.0
2017-Jul-21 21:00N 40°41' W 074°09'0 0.0
2017-Jul-21 20:29N 40°41' W 074°09'0 0.0
2017-Jul-21 19:59N 40°41' W 074°09'0 0.0
2017-Jul-21 19:29N 40°41' W 074°09'0 0.0
2017-Jul-21 18:59N 40°41' W 074°09'0 0.0
2017-Jul-21 18:29N 40°41' W 074°09'0 0.0
2017-Jul-21 17:58N 40°41' W 074°09'0 0.0
2017-Jul-21 17:28N 40°41' W 074°09'0 0.0
2017-Jul-21 16:55N 40°41' W 074°09'0 0.0
2017-Jul-21 16:28N 40°41' W 074°09'0 0.0
2017-Jul-21 16:01N 40°41' W 074°09'0 0.0
2017-Jul-21 15:30N 40°41' W 074°09'0 0.0
2017-Jul-21 15:00N 40°41' W 074°09'0 0.0
2017-Jul-21 14:27N 40°41' W 074°09'0 0.0
2017-Jul-21 13:51N 40°41' W 074°09'1 1.8
2017-Jul-21 13:30N 40°41' W 074°09'2 4.4
2017-Jul-21 13:00N 40°39' W 074°09'3 6.2
2017-Jul-21 12:30N 40°39' W 074°05'2 4.2
2017-Jul-21 12:00N 40°37' W 074°03'0 0.0
2017-Jul-21 11:30N 40°37' W 074°03'0 0.0
2017-Jul-21 11:00N 40°37' W 074°03'0 0.0
2017-Jul-21 10:29N 40°37' W 074°03'0 0.0
2017-Jul-21 09:59N 40°37' W 074°03'0 0.0
2017-Jul-21 09:29N 40°37' W 074°03'0 0.0
2017-Jul-21 08:59N 40°37' W 074°03'1 1.3
2017-Jul-21 08:30N 40°37' W 074°03'3 6.1
2017-Jul-21 08:00N 40°34' W 074°02'5 9.5
2017-Jul-21 07:31N 40°30' W 073°57'815.3
2017-Jul-21 07:00N 40°27' W 073°48'5 9.4
2017-Jul-21 06:29N 40°22' W 073°46'4 7.5
2017-Jul-21 05:59N 40°19' W 073°46'510.9
2017-Jul-21 05:30N 40°13' W 073°46'510.1
2017-Jul-21 05:00N 40°08' W 073°45'510.5
2017-Jul-21 04:30N 40°03' W 073°44'610.8
2017-Jul-21 03:55N 39°57' W 073°43'611.0
2017-Jul-21 03:25N 39°51' W 073°42'410.7
2017-Jul-21 03:00N 39°47' W 073°41'710.5
2017-Jul-21 02:22N 39°40' W 073°41'410.2
2017-Jul-21 02:00N 39°37' W 073°42'510.3
2017-Jul-21 01:29N 39°31' W 073°43'510.2
2017-Jul-21 00:59N 39°26' W 073°44'510.3
2017-Jul-21 00:30N 39°22' W 073°45'610.5
2017-Jul-20 23:58N 39°16' W 073°46'3 7.7
2017-Jul-20 23:30N 39°12' W 073°47'1 2.1
2017-Jul-20 22:54N 39°12' W 073°48'1 1.4
2017-Jul-20 22:21N 39°12' W 073°49'1 1.4
2017-Jul-20 21:56N 39°12' W 073°50'1 1.5
2017-Jul-20 21:15N 39°12' W 073°51'0 0.3
2017-Jul-20 20:35N 39°12' W 073°51'0 1.6
2017-Jul-20 20:24N 39°11' W 073°51'1 2.9
2017-Jul-20 19:55N 39°10' W 073°51'14 9.7
2017-Jul-20 18:28N 38°56' W 073°55'1810.0
2017-Jul-20 16:38N 38°38' W 074°01'1 9.7
2017-Jul-20 16:30N 38°37' W 074°01'10 9.4
2017-Jul-20 15:26N 38°27' W 074°04'613.4
2017-Jul-20 15:01N 38°22' W 074°06'1513.7
2017-Jul-20 13:56N 38°08' W 074°10'613.5
2017-Jul-20 13:30N 38°02' W 074°12'713.8
2017-Jul-20 13:00N 37°55' W 074°14'713.9
2017-Jul-20 12:30N 37°48' W 074°16'714.0
2017-Jul-20 12:00N 37°42' W 074°18'714.1
2017-Jul-20 11:30N 37°35' W 074°20'714.0
2017-Jul-20 11:00N 37°28' W 074°22'713.9
2017-Jul-20 10:30N 37°21' W 074°24'713.5
2017-Jul-20 10:00N 37°15' W 074°25'713.4
2017-Jul-20 09:30N 37°08' W 074°27'3613.2
2017-Jul-20 06:47N 36°33' W 074°38'413.1
2017-Jul-20 06:30N 36°30' W 074°39'1013.3
2017-Jul-20 05:46N 36°20' W 074°41'614.2
2017-Jul-20 05:20N 36°14' W 074°43'513.5
2017-Jul-20 04:58N 36°09' W 074°44'38713.9
2017-Jul-19 01:06N 31°57' W 080°39'114.5
2017-Jul-19 01:00N 31°57' W 080°41'915.2
2017-Jul-19 00:24N 32°02' W 080°50'713.5
2017-Jul-18 23:54N 32°04' W 080°57'510.1
2017-Jul-18 23:26N 32°05' W 081°03'3 5.5
2017-Jul-18 22:48N 32°06' W 081°07'2 5.4
2017-Jul-18 22:29N 32°07' W 081°08'0 0.0
2017-Jul-18 09:09N 32°07' W 081°08'0 1.2
2017-Jul-18 08:56N 32°08' W 081°08'1 1.2
2017-Jul-18 08:30N 32°07' W 081°08'3 5.6
2017-Jul-18 07:58N 32°05' W 081°06'5 7.5
2017-Jul-18 07:19N 32°06' W 080°60'413.3
2017-Jul-18 07:00N 32°03' W 080°56'611.9
2017-Jul-18 06:30N 32°02' W 080°49'1011.0
2017-Jul-18 05:37N 31°57' W 080°40'1 3.9
2017-Jul-18 05:21N 31°57' W 080°38'3 8.4
2017-Jul-18 04:56N 31°56' W 080°34'4 0.2
2017-Jul-17 02:20N 31°58' W 080°30'37310.2
2017-Jul-15 13:52N 36°51' W 075°51'514.8
2017-Jul-15 13:30N 36°55' W 075°56'714.3
2017-Jul-15 13:00N 36°58' W 076°04'918.1
2017-Jul-15 12:29N 37°00' W 076°16'611.5
2017-Jul-15 12:00N 36°56' W 076°20'4 8.5
2017-Jul-15 11:30N 36°52' W 076°20'1 1.2
2017-Jul-15 10:54N 36°51' W 076°20'0 0.0
2017-Jul-15 10:09N 36°51' W 076°20'0 0.0
2017-Jul-15 09:57N 36°51' W 076°20'0 0.0
2017-Jul-15 00:41N 36°51' W 076°20'0 0.0
2017-Jul-15 00:29N 36°51' W 076°20'0 0.0
2017-Jul-14 23:59N 36°51' W 076°20'0 0.0
2017-Jul-14 23:29N 36°51' W 076°20'0 0.0
2017-Jul-14 22:55N 36°51' W 076°20'0 0.0
2017-Jul-14 22:28N 36°51' W 076°20'0 0.0
2017-Jul-14 21:58N 36°51' W 076°20'0 0.0
2017-Jul-14 21:28N 36°51' W 076°20'0 0.0
2017-Jul-14 21:01N 36°51' W 076°20'0 0.0
2017-Jul-14 20:30N 36°51' W 076°20'0 0.0
2017-Jul-14 20:00N 36°51' W 076°20'0 0.0
2017-Jul-14 19:15N 36°51' W 076°20'0 0.0
2017-Jul-14 18:57N 36°51' W 076°20'0 0.0
2017-Jul-14 18:26N 36°51' W 076°20'0 0.0
2017-Jul-14 17:56N 36°51' W 076°20'0 0.0
2017-Jul-14 17:29N 36°51' W 076°20'0 0.0
2017-Jul-14 16:59N 36°51' W 076°20'0 0.0
2017-Jul-14 16:29N 36°51' W 076°20'0 0.0
2017-Jul-14 15:58N 36°51' W 076°20'0 0.0
2017-Jul-14 15:28N 36°51' W 076°20'0 0.0
2017-Jul-14 14:58N 36°51' W 076°20'0 0.0
2017-Jul-14 14:28N 36°51' W 076°20'0 0.0
2017-Jul-14 14:00N 36°51' W 076°20'0 0.0
2017-Jul-14 13:30N 36°51' W 076°20'0 0.0
2017-Jul-14 13:00N 36°51' W 076°20'0 0.0
2017-Jul-14 12:30N 36°51' W 076°20'0 0.0
2017-Jul-14 11:57N 36°51' W 076°20'0 0.0
2017-Jul-14 11:30N 36°51' W 076°20'1 2.0
2017-Jul-14 11:00N 36°52' W 076°20'4 8.6
2017-Jul-14 10:30N 36°57' W 076°20'710.8
2017-Jul-14 09:49N 36°60' W 076°12'515.9
2017-Jul-14 09:31N 36°58' W 076°06'510.3
2017-Jul-14 08:59N 36°57' W 075°59'713.7
2017-Jul-14 08:30N 37°03' W 076°04'8816.6
2017-Jul-14 03:12N 38°29' W 076°24'418.5
2017-Jul-14 02:59N 38°33' W 076°26'917.9
2017-Jul-14 02:30N 38°42' W 076°26'917.7
2017-Jul-14 01:59N 38°51' W 076°24'816.2
2017-Jul-14 01:28N 38°59' W 076°23'612.9
2017-Jul-14 01:00N 39°05' W 076°24'612.4
2017-Jul-14 00:30N 39°11' W 076°26'611.3
2017-Jul-14 00:00N 39°14' W 076°33'2 3.3
2017-Jul-13 23:30N 39°15' W 076°34'1 1.0
2017-Jul-13 22:59N 39°15' W 076°33'0 0.0
2017-Jul-13 22:29N 39°15' W 076°33'0 0.0
2017-Jul-13 21:58N 39°15' W 076°33'0 0.0
2017-Jul-13 21:28N 39°15' W 076°33'0 0.0
2017-Jul-13 20:58N 39°15' W 076°33'0 0.0
2017-Jul-13 20:28N 39°15' W 076°33'0 0.0
2017-Jul-13 20:00N 39°15' W 076°33'0 0.0
2017-Jul-13 19:30N 39°15' W 076°33'0 0.0
2017-Jul-13 18:57N 39°15' W 076°33'0 0.0
2017-Jul-13 18:27N 39°15' W 076°33'0 0.0
2017-Jul-13 18:00N 39°15' W 076°33'0 0.0
2017-Jul-13 17:29N 39°15' W 076°33'0 0.0
2017-Jul-13 16:59N 39°15' W 076°33'0 0.0
2017-Jul-13 16:29N 39°15' W 076°33'0 0.0
2017-Jul-13 15:59N 39°15' W 076°33'0 0.0
2017-Jul-13 15:29N 39°15' W 076°33'0 0.0
2017-Jul-13 14:58N 39°15' W 076°33'0 0.0
2017-Jul-13 14:28N 39°15' W 076°33'0 0.0
2017-Jul-13 13:58N 39°15' W 076°33'0 0.0
2017-Jul-13 13:28N 39°15' W 076°33'0 0.0
2017-Jul-13 13:00N 39°15' W 076°33'0 0.0
2017-Jul-13 12:30N 39°15' W 076°33'0 0.0
2017-Jul-13 12:00N 39°15' W 076°33'0 0.0
2017-Jul-13 11:30N 39°15' W 076°33'0 0.0
2017-Jul-13 11:00N 39°15' W 076°33'0 0.0
2017-Jul-13 10:29N 39°15' W 076°33'0 0.0
2017-Jul-13 09:56N 39°15' W 076°33'0 0.0
2017-Jul-13 09:29N 39°15' W 076°33'0 0.0
2017-Jul-13 08:59N 39°15' W 076°33'0 0.0
2017-Jul-13 08:28N 39°15' W 076°33'0 0.0
2017-Jul-13 07:58N 39°15' W 076°33'0 0.0
2017-Jul-13 07:28N 39°15' W 076°33'0 0.0
2017-Jul-13 06:58N 39°15' W 076°33'0 0.0
2017-Jul-13 06:28N 39°15' W 076°33'0 0.0
2017-Jul-13 06:00N 39°15' W 076°33'0 0.0
2017-Jul-13 05:30N 39°15' W 076°33'0 0.0
2017-Jul-13 04:57N 39°15' W 076°33'0 0.0
2017-Jul-13 04:30N 39°15' W 076°33'0 0.0
2017-Jul-13 04:00N 39°15' W 076°33'  
Track history (hours):
 
Tides and Currents Weather Stations Pressure Air Temp Water Temp Dewpoint Dewpoint Depression Visibility Wind Speed Wind Dir Waves Ship Positions

MSC Barbara

Last reported at 2017-Jul-23 03:21 UTC. Time now 2017-Jul-23 04:30 UTC.
Position N 40°24' W 071°39'.

Length 304 m; draft 10.2 m.

Type: Ship. MMSI: 353775000.

Date/timePositionNaut miles runAvg speedWind from/ knotsBaromVisibWave heightAir tempDewpointWater temp
2017-Jul-23 03:21N 40°24' W 071°39'7818.6
2017-Jul-22 23:09N 40°23' W 073°21'418.2
2017-Jul-22 22:55N 40°23' W 073°27'818.3
2017-Jul-22 22:29N 40°25' W 073°37'816.8
2017-Jul-22 22:00N 40°27' W 073°47'612.9
2017-Jul-22 21:30N 40°29' W 073°55'713.7
2017-Jul-22 21:01N 40°34' W 074°02'611.2
2017-Jul-22 20:30N 40°39' W 074°05'3 6.3
2017-Jul-22 20:00N 40°39' W 074°09'2 3.6
2017-Jul-22 19:30N 40°40' W 074°08'1 2.0
2017-Jul-22 19:00N 40°41' W 074°09'0 0.0
2017-Jul-22 18:30N 40°41' W 074°09'0 0.0
2017-Jul-22 18:00N 40°41' W 074°09'0 0.0
2017-Jul-22 17:27N 40°41' W 074°09'0 0.0
2017-Jul-22 16:59N 40°41' W 074°09'0 0.0
2017-Jul-22 16:29N 40°41' W 074°09'0 0.0
2017-Jul-22 15:56N 40°41' W 074°09'0 0.0
2017-Jul-22 15:29N 40°41' W 074°09'0 0.0
2017-Jul-22 14:58N 40°41' W 074°09'0 0.0
2017-Jul-22 13:58N 40°41' W 074°09'0 0.0
2017-Jul-22 13:28N 40°41' W 074°09'0 0.0
2017-Jul-22 12:58N 40°41' W 074°09'0 0.0
2017-Jul-22 12:30N 40°41' W 074°09'0 0.0
2017-Jul-22 12:00N 40°41' W 074°09'0 0.0
2017-Jul-22 11:30N 40°41' W 074°09'0 0.0
2017-Jul-22 10:57N 40°41' W 074°09'0 0.0
2017-Jul-22 10:30N 40°41' W 074°09'0 0.0
2017-Jul-22 09:59N 40°41' W 074°09'0 0.0
2017-Jul-22 09:29N 40°41' W 074°09'0 0.0
2017-Jul-22 08:59N 40°41' W 074°09'0 0.0
2017-Jul-22 08:26N 40°41' W 074°09'0 0.0
2017-Jul-22 07:58N 40°41' W 074°09'0 0.0
2017-Jul-22 07:28N 40°41' W 074°09'0 0.0
2017-Jul-22 06:58N 40°41' W 074°09'0 0.0
2017-Jul-22 06:28N 40°41' W 074°09'0 0.0
2017-Jul-22 05:58N 40°41' W 074°09'0 0.0
2017-Jul-22 05:30N 40°41' W 074°09'0 0.0
2017-Jul-22 05:00N 40°41' W 074°09'0 0.0
2017-Jul-22 04:30N 40°41' W 074°09'0 0.0
2017-Jul-22 03:48N 40°41' W 074°09'0 0.0
2017-Jul-22 03:29N 40°41' W 074°09'0 0.0
2017-Jul-22 02:59N 40°41' W 074°09'0 0.0
2017-Jul-22 02:29N 40°41' W 074°09'0 0.0
2017-Jul-22 01:59N 40°41' W 074°09'0 0.0
2017-Jul-22 01:26N 40°41' W 074°09'0 0.0
2017-Jul-22 00:58N 40°41' W 074°09'0 0.0
2017-Jul-22 00:28N 40°41' W 074°09'0 0.0
2017-Jul-21 23:58N 40°41' W 074°09'0 0.0
2017-Jul-21 23:28N 40°41' W 074°09'0 0.0
2017-Jul-21 22:58N 40°41' W 074°09'0 0.0
2017-Jul-21 22:24N 40°41' W 074°09'0 0.0
2017-Jul-21 22:00N 40°41' W 074°09'0 0.0
2017-Jul-21 21:30N 40°41' W 074°09'0 0.0
2017-Jul-21 21:00N 40°41' W 074°09'0 0.0
2017-Jul-21 20:29N 40°41' W 074°09'0 0.0
2017-Jul-21 19:59N 40°41' W 074°09'0 0.0
2017-Jul-21 19:29N 40°41' W 074°09'0 0.0
2017-Jul-21 18:59N 40°41' W 074°09'0 0.0
2017-Jul-21 18:29N 40°41' W 074°09'0 0.0
2017-Jul-21 17:58N 40°41' W 074°09'0 0.0
2017-Jul-21 17:28N 40°41' W 074°09'0 0.0
2017-Jul-21 16:55N 40°41' W 074°09'0 0.0
2017-Jul-21 16:28N 40°41' W 074°09'0 0.0
2017-Jul-21 16:01N 40°41' W 074°09'0 0.0
2017-Jul-21 15:30N 40°41' W 074°09'0 0.0
2017-Jul-21 15:00N 40°41' W 074°09'0 0.0
2017-Jul-21 14:27N 40°41' W 074°09'0 0.0
2017-Jul-21 13:51N 40°41' W 074°09'1 1.8
2017-Jul-21 13:30N 40°41' W 074°09'2 4.4
2017-Jul-21 13:00N 40°39' W 074°09'3 6.2
2017-Jul-21 12:30N 40°39' W 074°05'2 4.2
2017-Jul-21 12:00N 40°37' W 074°03'0 0.0
2017-Jul-21 11:30N 40°37' W 074°03'0 0.0
2017-Jul-21 11:00N 40°37' W 074°03'0 0.0
2017-Jul-21 10:29N 40°37' W 074°03'0 0.0
2017-Jul-21 09:59N 40°37' W 074°03'0 0.0
2017-Jul-21 09:29N 40°37' W 074°03'0 0.0
2017-Jul-21 08:59N 40°37' W 074°03'1 1.3
2017-Jul-21 08:30N 40°37' W 074°03'3 6.1
2017-Jul-21 08:00N 40°34' W 074°02'5 9.5
2017-Jul-21 07:31N 40°30' W 073°57'815.3
2017-Jul-21 07:00N 40°27' W 073°48'5 9.4
2017-Jul-21 06:29N 40°22' W 073°46'4 7.5
2017-Jul-21 05:59N 40°19' W 073°46'510.9
2017-Jul-21 05:30N 40°13' W 073°46'510.1
2017-Jul-21 05:00N 40°08' W 073°45'510.5
2017-Jul-21 04:30N 40°03' W 073°44'610.8
2017-Jul-21 03:55N 39°57' W 073°43'611.0
2017-Jul-21 03:25N 39°51' W 073°42'410.7
2017-Jul-21 03:00N 39°47' W 073°41'710.5
2017-Jul-21 02:22N 39°40' W 073°41'410.2
2017-Jul-21 02:00N 39°37' W 073°42'510.3
2017-Jul-21 01:29N 39°31' W 073°43'510.2
2017-Jul-21 00:59N 39°26' W 073°44'510.3
2017-Jul-21 00:30N 39°22' W 073°45'610.5
2017-Jul-20 23:58N 39°16' W 073°46'3 7.7
2017-Jul-20 23:30N 39°12' W 073°47'1 2.1
2017-Jul-20 22:54N 39°12' W 073°48'1 1.4
2017-Jul-20 22:21N 39°12' W 073°49'1 1.4
2017-Jul-20 21:56N 39°12' W 073°50'1 1.5
2017-Jul-20 21:15N 39°12' W 073°51'0 0.3
2017-Jul-20 20:35N 39°12' W 073°51'0 1.6
2017-Jul-20 20:24N 39°11' W 073°51'1 2.9
2017-Jul-20 19:55N 39°10' W 073°51'14 9.7
2017-Jul-20 18:28N 38°56' W 073°55'1810.0
2017-Jul-20 16:38N 38°38' W 074°01'1 9.7
2017-Jul-20 16:30N 38°37' W 074°01'10 9.4
2017-Jul-20 15:26N 38°27' W 074°04'613.4
2017-Jul-20 15:01N 38°22' W 074°06'1513.7
2017-Jul-20 13:56N 38°08' W 074°10'613.5
2017-Jul-20 13:30N 38°02' W 074°12'713.8
2017-Jul-20 13:00N 37°55' W 074°14'713.9
2017-Jul-20 12:30N 37°48' W 074°16'714.0
2017-Jul-20 12:00N 37°42' W 074°18'714.1
2017-Jul-20 11:30N 37°35' W 074°20'714.0
2017-Jul-20 11:00N 37°28' W 074°22'713.9
2017-Jul-20 10:30N 37°21' W 074°24'713.5
2017-Jul-20 10:00N 37°15' W 074°25'713.4
2017-Jul-20 09:30N 37°08' W 074°27'3613.2
2017-Jul-20 06:47N 36°33' W 074°38'413.1
2017-Jul-20 06:30N 36°30' W 074°39'1013.3
2017-Jul-20 05:46N 36°20' W 074°41'614.2
2017-Jul-20 05:20N 36°14' W 074°43'513.5
2017-Jul-20 04:58N 36°09' W 074°44'38713.9
2017-Jul-19 01:06N 31°57' W 080°39'114.5
2017-Jul-19 01:00N 31°57' W 080°41'915.2
2017-Jul-19 00:24N 32°02' W 080°50'713.5
2017-Jul-18 23:54N 32°04' W 080°57'510.1
2017-Jul-18 23:26N 32°05' W 081°03'3 5.5
2017-Jul-18 22:48N 32°06' W 081°07'2 5.4
2017-Jul-18 22:29N 32°07' W 081°08'0 0.0
2017-Jul-18 09:09N 32°07' W 081°08'0 1.2
2017-Jul-18 08:56N 32°08' W 081°08'1 1.2
2017-Jul-18 08:30N 32°07' W 081°08'3 5.6
2017-Jul-18 07:58N 32°05' W 081°06'5 7.5
2017-Jul-18 07:19N 32°06' W 080°60'413.3
2017-Jul-18 07:00N 32°03' W 080°56'611.9
2017-Jul-18 06:30N 32°02' W 080°49'1011.0
2017-Jul-18 05:37N 31°57' W 080°40'1 3.9
2017-Jul-18 05:21N 31°57' W 080°38'3 8.4
2017-Jul-18 04:56N 31°56' W 080°34'4 0.2
2017-Jul-17 02:20N 31°58' W 080°30'37310.2
2017-Jul-15 13:52N 36°51' W 075°51'514.8
2017-Jul-15 13:30N 36°55' W 075°56'714.3
2017-Jul-15 13:00N 36°58' W 076°04'918.1
2017-Jul-15 12:29N 37°00' W 076°16'611.5
2017-Jul-15 12:00N 36°56' W 076°20'4 8.5
2017-Jul-15 11:30N 36°52' W 076°20'1 1.2
2017-Jul-15 10:54N 36°51' W 076°20'0 0.0
2017-Jul-15 10:09N 36°51' W 076°20'0 0.0
2017-Jul-15 09:57N 36°51' W 076°20'0 0.0
2017-Jul-15 00:41N 36°51' W 076°20'0 0.0
2017-Jul-15 00:29N 36°51' W 076°20'0 0.0
2017-Jul-14 23:59N 36°51' W 076°20'0 0.0
2017-Jul-14 23:29N 36°51' W 076°20'0 0.0
2017-Jul-14 22:55N 36°51' W 076°20'0 0.0
2017-Jul-14 22:28N 36°51' W 076°20'0 0.0
2017-Jul-14 21:58N 36°51' W 076°20'0 0.0
2017-Jul-14 21:28N 36°51' W 076°20'0 0.0
2017-Jul-14 21:01N 36°51' W 076°20'0 0.0
2017-Jul-14 20:30N 36°51' W 076°20'0 0.0
2017-Jul-14 20:00N 36°51' W 076°20'0 0.0
2017-Jul-14 19:15N 36°51' W 076°20'0 0.0
2017-Jul-14 18:57N 36°51' W 076°20'0 0.0
2017-Jul-14 18:26N 36°51' W 076°20'0 0.0
2017-Jul-14 17:56N 36°51' W 076°20'0 0.0
2017-Jul-14 17:29N 36°51' W 076°20'0 0.0
2017-Jul-14 16:59N 36°51' W 076°20'0 0.0
2017-Jul-14 16:29N 36°51' W 076°20'0 0.0
2017-Jul-14 15:58N 36°51' W 076°20'0 0.0
2017-Jul-14 15:28N 36°51' W 076°20'0 0.0
2017-Jul-14 14:58N 36°51' W 076°20'0 0.0
2017-Jul-14 14:28N 36°51' W 076°20'0 0.0
2017-Jul-14 14:00N 36°51' W 076°20'0 0.0
2017-Jul-14 13:30N 36°51' W 076°20'0 0.0
2017-Jul-14 13:00N 36°51' W 076°20'0 0.0
2017-Jul-14 12:30N 36°51' W 076°20'0 0.0
2017-Jul-14 11:57N 36°51' W 076°20'0 0.0
2017-Jul-14 11:30N 36°51' W 076°20'1 2.0
2017-Jul-14 11:00N 36°52' W 076°20'4 8.6
2017-Jul-14 10:30N 36°57' W 076°20'710.8
2017-Jul-14 09:49N 36°60' W 076°12'515.9
2017-Jul-14 09:31N 36°58' W 076°06'510.3
2017-Jul-14 08:59N 36°57' W 075°59'713.7
2017-Jul-14 08:30N 37°03' W 076°04'8816.6
2017-Jul-14 03:12N 38°29' W 076°24'418.5
2017-Jul-14 02:59N 38°33' W 076°26'917.9
2017-Jul-14 02:30N 38°42' W 076°26'917.7
2017-Jul-14 01:59N 38°51' W 076°24'816.2
2017-Jul-14 01:28N 38°59' W 076°23'612.9
2017-Jul-14 01:00N 39°05' W 076°24'612.4
2017-Jul-14 00:30N 39°11' W 076°26'611.3
2017-Jul-14 00:00N 39°14' W 076°33'2 3.3
2017-Jul-13 23:30N 39°15' W 076°34'1 1.0
2017-Jul-13 22:59N 39°15' W 076°33'0 0.0
2017-Jul-13 22:29N 39°15' W 076°33'0 0.0
2017-Jul-13 21:58N 39°15' W 076°33'0 0.0
2017-Jul-13 21:28N 39°15' W 076°33'0 0.0
2017-Jul-13 20:58N 39°15' W 076°33'0 0.0
2017-Jul-13 20:28N 39°15' W 076°33'0 0.0
2017-Jul-13 20:00N 39°15' W 076°33'0 0.0
2017-Jul-13 19:30N 39°15' W 076°33'0 0.0
2017-Jul-13 18:57N 39°15' W 076°33'0 0.0
2017-Jul-13 18:27N 39°15' W 076°33'0 0.0
2017-Jul-13 18:00N 39°15' W 076°33'0 0.0
2017-Jul-13 17:29N 39°15' W 076°33'0 0.0
2017-Jul-13 16:59N 39°15' W 076°33'0 0.0
2017-Jul-13 16:29N 39°15' W 076°33'0 0.0
2017-Jul-13 15:59N 39°15' W 076°33'0 0.0
2017-Jul-13 15:29N 39°15' W 076°33'0 0.0
2017-Jul-13 14:58N 39°15' W 076°33'0 0.0
2017-Jul-13 14:28N 39°15' W 076°33'0 0.0
2017-Jul-13 13:58N 39°15' W 076°33'0 0.0
2017-Jul-13 13:28N 39°15' W 076°33'0 0.0
2017-Jul-13 13:00N 39°15' W 076°33'0 0.0
2017-Jul-13 12:30N 39°15' W 076°33'0 0.0
2017-Jul-13 12:00N 39°15' W 076°33'0 0.0
2017-Jul-13 11:30N 39°15' W 076°33'0 0.0
2017-Jul-13 11:00N 39°15' W 076°33'0 0.0
2017-Jul-13 10:29N 39°15' W 076°33'0 0.0
2017-Jul-13 09:56N 39°15' W 076°33'0 0.0
2017-Jul-13 09:29N 39°15' W 076°33'0 0.0
2017-Jul-13 08:59N 39°15' W 076°33'0 0.0
2017-Jul-13 08:28N 39°15' W 076°33'0 0.0
2017-Jul-13 07:58N 39°15' W 076°33'0 0.0
2017-Jul-13 07:28N 39°15' W 076°33'0 0.0
2017-Jul-13 06:58N 39°15' W 076°33'0 0.0
2017-Jul-13 06:28N 39°15' W 076°33'0 0.0
2017-Jul-13 06:00N 39°15' W 076°33'0 0.0
2017-Jul-13 05:30N 39°15' W 076°33'0 0.0
2017-Jul-13 04:57N 39°15' W 076°33'0 0.0
2017-Jul-13 04:30N 39°15' W 076°33'0 0.0
2017-Jul-13 04:00N 39°15' W 076°33'  

Dump ship's entire track history